Time;durP1;ratioP1;P1;durP2;ratioP2;P2;SDS_P1;SDS_P2;PMS_P1;PMS_P2;Temp;Humidity;BMP_temperature;BMP_pressure;BME280_temperature;BME280_humidity;BME280_pressure;Samples;Min_cycle;Max_cycle;Signal;HPM_P1;HPM_P2
2023/05/07 00:01:31;;;;;;;6.80;2.50;;;;;;;10.86;36.68;101404.99;108706;1257;63979;-52
2023/05/07 00:03:58;;;;;;;7.20;3.20;;;;;;;10.84;36.80;101402.84;108667;1257;66333;-52
2023/05/07 00:06:26;;;;;;;10.20;2.70;;;;;;;10.85;36.68;101399.23;108677;1258;62717;-53
2023/05/07 00:08:53;;;;;;;7.00;2.40;;;;;;;10.86;36.84;101399.52;108791;1257;58869;-54
2023/05/07 00:11:20;;;;;;;6.20;2.50;;;;;;;10.88;36.83;101403.45;108708;1257;66099;-54
2023/05/07 00:13:47;;;;;;;6.90;2.60;;;;;;;10.88;36.75;101402.23;105560;1257;63742;-53
2023/05/07 00:16:14;;;;;;;6.20;2.70;;;;;;;10.86;36.82;101398.83;104568;1257;66206;-52
2023/05/07 00:18:41;;;;;;;7.00;2.50;;;;;;;10.84;37.15;101395.44;105616;1257;60446;-51
2023/05/07 00:21:08;;;;;;;6.30;2.40;;;;;;;10.83;37.28;101393.42;104581;1258;59917;-53
2023/05/07 00:23:35;;;;;;;4.90;2.10;;;;;;;10.82;37.42;101392.26;104497;1263;67264;-53
2023/05/07 00:26:03;;;;;;;5.70;2.50;;;;;;;10.80;37.37;101388.54;104672;1257;63595;-52
2023/05/07 00:28:30;;;;;;;6.30;2.50;;;;;;;10.73;37.35;101382.09;105061;1257;66239;-52
2023/05/07 00:30:57;;;;;;;7.40;3.00;;;;;;;10.70;37.37;101378.66;104575;1263;60562;-52
2023/05/07 00:33:26;;;;;;;6.90;2.40;;;;;;;10.68;37.14;101382.29;104629;1261;59440;-51
2023/05/07 00:35:56;;;;;;;6.20;2.70;;;;;;;10.65;37.28;101385.33;105234;1258;67414;-51
2023/05/07 00:38:23;;;;;;;7.30;3.10;;;;;;;10.61;37.36;101385.91;105049;1257;63975;-53
2023/05/07 00:40:51;;;;;;;8.40;3.00;;;;;;;10.58;37.40;101387.84;106175;1257;65155;-52
2023/05/07 00:43:18;;;;;;;7.20;2.60;;;;;;;10.58;37.35;101390.64;106321;1257;60444;-54
2023/05/07 00:45:45;;;;;;;5.90;2.80;;;;;;;10.56;37.54;101393.38;104499;1264;60745;-52
2023/05/07 00:48:12;;;;;;;4.80;2.30;;;;;;;10.54;37.62;101394.59;104983;1258;66087;-51
2023/05/07 00:50:39;;;;;;;6.30;3.00;;;;;;;10.50;37.58;101399.54;104553;1262;73202;-54
2023/05/07 00:53:06;;;;;;;8.50;2.90;;;;;;;10.47;37.84;101397.98;105969;1262;64699;-51
2023/05/07 00:55:33;;;;;;;7.20;2.80;;;;;;;10.44;37.91;101398.17;105342;1257;60736;-51
2023/05/07 00:58:00;;;;;;;7.80;2.60;;;;;;;10.43;38.24;101403.88;105062;1258;60361;-52
2023/05/07 01:00:27;;;;;;;6.70;2.70;;;;;;;10.42;38.28;101406.91;104942;1264;66262;-52
2023/05/07 01:02:55;;;;;;;5.80;2.60;;;;;;;10.41;38.14;101409.96;105014;1263;63466;-52
2023/05/07 01:05:23;;;;;;;5.40;2.50;;;;;;;10.39;38.14;101410.77;104989;1257;74775;-52
2023/05/07 01:07:50;;;;;;;5.20;2.80;;;;;;;10.38;38.19;101411.54;105034;1257;60743;-52
2023/05/07 01:10:18;;;;;;;5.20;2.60;;;;;;;10.36;38.01;101414.14;105046;1262;61611;-50
2023/05/07 01:12:45;;;;;;;5.90;2.90;;;;;;;10.34;38.07;101420.42;104915;1264;67515;-51
2023/05/07 01:15:12;;;;;;;7.30;2.80;;;;;;;10.32;38.49;101420.87;106023;1260;62554;-52
2023/05/07 01:17:40;;;;;;;5.50;2.80;;;;;;;10.30;38.25;101419.75;105001;1258;65128;-51
2023/05/07 01:20:12;;;;;;;6.70;2.80;;;;;;;10.26;38.17;101416.83;105016;1257;60514;-51
2023/05/07 01:22:40;;;;;;;7.80;3.00;;;;;;;10.21;38.22;101415.73;104962;1256;60632;-51
2023/05/07 01:25:08;;;;;;;6.80;2.60;;;;;;;10.15;38.48;101417.30;106138;1257;66836;-52
2023/05/07 01:27:37;;;;;;;8.60;3.30;;;;;;;10.11;38.44;101417.05;105105;1257;64052;-52
2023/05/07 01:30:05;;;;;;;7.50;2.70;;;;;;;10.07;38.30;101416.40;104961;1264;65275;-51
2023/05/07 01:32:33;;;;;;;7.10;3.00;;;;;;;10.05;38.27;101422.48;105142;1257;60368;-51
2023/05/07 01:35:01;;;;;;;6.30;3.20;;;;;;;10.05;38.30;101420.54;106886;1258;60568;-53
2023/05/07 01:37:28;;;;;;;5.30;2.80;;;;;;;10.06;38.38;101417.85;105604;1258;67686;-51
2023/05/07 01:39:55;;;;;;;8.20;3.30;;;;;;;10.05;38.37;101414.41;104984;1262;72162;-52
2023/05/07 01:42:22;;;;;;;6.00;2.90;;;;;;;10.06;38.27;101419.83;104898;1264;65117;-52
2023/05/07 01:44:49;;;;;;;7.10;2.80;;;;;;;10.03;38.46;101420.34;104778;1260;60628;-53
2023/05/07 01:47:16;;;;;;;6.10;3.20;;;;;;;10.00;38.68;101421.37;105102;1263;60593;-52
2023/05/07 01:49:42;;;;;;;7.10;2.90;;;;;;;9.99;38.77;101420.94;104973;1262;67300;-52
2023/05/07 01:52:10;;;;;;;6.20;2.80;;;;;;;9.97;38.93;101424.55;104945;1258;63892;-52
2023/05/07 01:54:38;;;;;;;6.80;2.80;;;;;;;9.95;39.03;101429.25;105011;1257;66317;-52
2023/05/07 01:57:05;;;;;;;8.50;3.30;;;;;;;9.95;39.20;101432.77;106260;1257;59378;-52
2023/05/07 01:59:32;;;;;;;7.70;3.00;;;;;;;9.95;39.23;101435.00;105000;1257;60541;-53
2023/05/07 02:02:00;;;;;;;6.40;2.50;;;;;;;9.91;39.18;101435.11;104987;1258;67386;-51
2023/05/07 02:04:28;;;;;;;7.30;3.00;;;;;;;9.91;39.27;101437.21;104914;1258;63621;-52
2023/05/07 02:06:55;;;;;;;8.30;3.00;;;;;;;9.90;38.89;101441.12;106281;1262;66163;-54
2023/05/07 02:09:23;;;;;;;6.50;2.70;;;;;;;9.89;38.77;101448.57;105659;1257;60559;-51
2023/05/07 02:11:50;;;;;;;6.00;2.80;;;;;;;9.87;38.96;101451.78;104932;1257;60478;-53
2023/05/07 02:14:20;;;;;;;3.70;1.20;;;;;;;9.89;39.13;101448.05;107281;1257;67215;-51
2023/05/07 02:16:46;;;;;;;7.70;3.30;;;;;;;9.90;39.29;101446.93;105078;1261;64076;-51
2023/05/07 02:19:14;;;;;;;7.40;3.10;;;;;;;9.91;39.42;101447.87;108723;1257;66243;-52
2023/05/07 02:21:41;;;;;;;7.50;3.10;;;;;;;9.91;39.46;101453.83;108653;1257;58370;-52
2023/05/07 02:24:08;;;;;;;8.30;3.00;;;;;;;9.92;39.55;101449.95;108681;1257;58383;-52
2023/05/07 02:26:35;;;;;;;6.60;2.50;;;;;;;9.93;39.39;101448.98;108697;1257;67111;-52
2023/05/07 02:29:02;;;;;;;6.00;2.80;;;;;;;9.96;39.29;101449.48;108777;1257;62998;-51
2023/05/07 02:31:29;;;;;;;5.10;2.60;;;;;;;9.99;39.28;101449.33;108676;1257;66384;-52
2023/05/07 02:33:57;;;;;;;5.60;2.70;;;;;;;10.02;39.50;101453.88;108679;1260;59064;-52
2023/05/07 02:36:24;;;;;;;6.90;2.70;;;;;;;10.03;39.61;101459.94;108663;1257;58468;-52
2023/05/07 02:38:55;;;;;;;6.90;3.10;;;;;;;10.04;39.68;101461.45;108573;1259;76196;-52
2023/05/07 02:41:22;;;;;;;5.00;2.40;;;;;;;10.05;39.54;101468.58;108723;1257;62749;-52
2023/05/07 02:43:49;;;;;;;6.10;3.10;;;;;;;10.06;39.55;101476.10;108652;1257;66382;-52
2023/05/07 02:46:16;;;;;;;7.20;3.60;;;;;;;10.07;39.37;101479.91;105142;1260;60393;-52
2023/05/07 02:48:45;;;;;;;11.70;3.60;;;;;;;10.07;39.30;101476.57;104849;1263;60526;-52
2023/05/07 02:51:12;;;;;;;6.80;3.30;;;;;;;10.03;39.35;101474.51;107044;1258;67284;-52
2023/05/07 02:53:40;;;;;;;8.70;2.60;;;;;;;10.06;39.48;101476.95;108637;1257;63744;-53
2023/05/07 02:56:06;;;;;;;7.30;3.50;;;;;;;10.06;39.46;101479.40;107655;1260;65197;-53
2023/05/07 02:58:33;;;;;;;8.30;3.20;;;;;;;10.03;39.64;101478.17;104933;1262;60466;-53
2023/05/07 03:01:01;;;;;;;7.70;3.50;;;;;;;10.02;39.53;101481.21;108598;1257;59030;-52
2023/05/07 03:03:35;;;;;;;6.80;2.90;;;;;;;10.02;39.76;101482.97;105060;1258;67887;-52
2023/05/07 03:06:02;;;;;;;8.40;3.10;;;;;;;10.01;39.89;101488.15;105481;1262;62750;-53
2023/05/07 03:08:29;;;;;;;6.10;3.50;;;;;;;9.98;39.50;101491.08;108638;1257;66202;-53
2023/05/07 03:10:56;;;;;;;8.80;3.80;;;;;;;9.99;39.43;101492.29;105019;1262;61037;-53
2023/05/07 03:13:23;;;;;;;6.40;3.20;;;;;;;9.96;39.59;101494.19;104984;1263;60418;-53
2023/05/07 03:15:51;;;;;;;9.80;3.30;;;;;;;9.94;39.51;101494.85;104994;1257;67160;-53
2023/05/07 03:18:18;;;;;;;7.10;3.20;;;;;;;9.92;39.35;101499.90;105053;1257;63610;-52
2023/05/07 03:20:46;;;;;;;5.80;2.90;;;;;;;9.90;39.25;101506.35;104988;1263;66420;-52
2023/05/07 03:23:13;;;;;;;6.80;3.30;;;;;;;9.86;39.65;101508.79;105124;1262;59676;-52
2023/05/07 03:25:39;;;;;;;6.50;3.00;;;;;;;9.84;39.83;101513.09;105069;1262;61259;-52
2023/05/07 03:28:06;;;;;;;7.50;3.10;;;;;;;9.81;40.03;101510.35;105090;1263;67460;-52
2023/05/07 03:30:41;;;;;;;6.70;3.30;;;;;;;9.80;40.29;101518.06;105049;1262;62563;-54
2023/05/07 03:33:07;;;;;;;7.50;3.20;;;;;;;9.79;40.47;101517.98;104578;1258;66513;-54
2023/05/07 03:35:35;;;;;;;6.80;3.00;;;;;;;9.79;40.16;101517.98;104437;1260;60584;-52
2023/05/07 03:38:02;;;;;;;7.20;3.30;;;;;;;9.78;40.44;101521.69;104612;1262;60482;-51
2023/05/07 03:40:31;;;;;;;6.60;3.40;;;;;;;9.76;40.76;101517.80;104361;1259;67606;-52
2023/05/07 03:42:59;;;;;;;6.10;2.80;;;;;;;9.76;40.72;101523.10;105138;1262;71098;-53
2023/05/07 03:45:27;;;;;;;8.10;4.00;;;;;;;9.75;40.43;101525.73;108533;1259;64899;-53
2023/05/07 03:48:05;;;;;;;6.50;3.40;;;;;;;9.77;40.28;101520.38;108612;1257;58928;-54
2023/05/07 03:50:32;;;;;;;7.10;3.70;;;;;;;9.81;39.91;101518.56;108621;1257;58850;-53
2023/05/07 03:52:59;;;;;;;6.90;3.20;;;;;;;9.87;40.08;101521.73;108588;1257;66670;-53
2023/05/07 03:55:27;;;;;;;7.20;3.10;;;;;;;9.91;40.09;101523.62;108724;1261;63929;-53
2023/05/07 03:57:56;;;;;;;7.30;3.30;;;;;;;9.94;40.04;101522.04;108617;1257;66511;-53
2023/05/07 04:00:23;;;;;;;6.30;2.90;;;;;;;9.99;39.99;101528.20;106970;1257;60536;-53
2023/05/07 04:02:50;;;;;;;8.80;3.80;;;;;;;10.03;39.87;101527.77;104473;1259;60689;-52
2023/05/07 04:05:23;;;;;;;8.30;3.40;;;;;;;10.07;39.66;101530.19;104658;1261;67483;-54
2023/05/07 04:07:52;;;;;;;7.80;3.60;;;;;;;10.10;39.58;101534.77;104531;1262;62502;-52
2023/05/07 04:10:23;;;;;;;5.40;2.90;;;;;;;10.11;39.75;101537.31;105161;1259;64983;-52
2023/05/07 04:12:51;;;;;;;6.20;2.90;;;;;;;10.10;39.82;101537.16;106206;1258;60539;-51
2023/05/07 04:15:20;;;;;;;7.50;3.20;;;;;;;10.11;40.09;101536.27;107101;1257;60578;-52
2023/05/07 04:17:46;;;;;;;6.70;3.00;;;;;;;10.11;40.36;101534.17;104449;1262;67259;-52
2023/05/07 04:20:15;;;;;;;7.30;3.40;;;;;;;10.11;40.40;101532.58;108700;1257;63733;-53
2023/05/07 04:22:43;;;;;;;6.30;2.90;;;;;;;10.14;40.56;101532.77;108650;1257;66244;-54
2023/05/07 04:25:10;;;;;;;6.40;2.90;;;;;;;10.15;40.39;101532.15;108606;1257;58827;-54
2023/05/07 04:27:37;;;;;;;8.90;3.30;;;;;;;10.16;40.31;101532.29;104808;1257;60559;-53
2023/05/07 04:30:06;;;;;;;8.00;3.30;;;;;;;10.17;40.43;101527.85;105969;1258;75780;-53
2023/05/07 04:32:37;;;;;;;9.30;3.60;;;;;;;10.17;40.44;101528.89;106849;1257;63945;-52
2023/05/07 04:35:04;;;;;;;6.40;3.40;;;;;;;10.15;40.48;101525.87;105058;1257;66245;-52
2023/05/07 04:37:32;;;;;;;6.70;3.10;;;;;;;10.14;40.42;101523.48;108637;1257;59711;-52
2023/05/07 04:40:00;;;;;;;7.20;3.50;;;;;;;10.15;40.49;101517.41;108710;1257;61461;-54
2023/05/07 04:42:27;;;;;;;6.70;3.30;;;;;;;10.17;40.35;101512.91;108773;1258;67326;-54
2023/05/07 04:44:54;;;;;;;6.50;3.30;;;;;;;10.19;40.40;101512.63;108619;1259;62847;-53
2023/05/07 04:47:22;;;;;;;6.30;3.30;;;;;;;10.23;40.36;101509.08;108636;1256;66256;-53
2023/05/07 04:49:49;;;;;;;8.30;3.30;;;;;;;10.24;40.37;101507.23;108623;1260;58984;-53
2023/05/07 04:52:16;;;;;;;8.00;3.40;;;;;;;10.26;40.37;101506.94;108745;1262;60230;-54
2023/05/07 04:54:43;;;;;;;7.70;3.80;;;;;;;10.30;40.54;101506.40;105777;1262;66900;-53
2023/05/07 04:57:11;;;;;;;7.50;3.40;;;;;;;10.32;40.65;101506.64;105112;1257;63423;-52
2023/05/07 04:59:38;;;;;;;7.10;3.30;;;;;;;10.33;40.77;101510.41;104955;1257;66746;-54
2023/05/07 05:02:05;;;;;;;6.70;3.40;;;;;;;10.34;40.64;101505.41;105012;1262;60479;-53
2023/05/07 05:04:33;;;;;;;8.10;3.30;;;;;;;10.35;40.60;101508.23;104919;1262;61409;-52
2023/05/07 05:07:00;;;;;;;6.40;3.40;;;;;;;10.35;40.65;101503.80;104954;1262;67291;-52
2023/05/07 05:09:27;;;;;;;6.90;3.80;;;;;;;10.36;40.66;101497.58;104927;1262;63638;-52
2023/05/07 05:11:54;;;;;;;6.80;3.50;;;;;;;10.39;40.80;101494.97;108663;1257;66337;-53
2023/05/07 05:14:21;;;;;;;7.80;3.90;;;;;;;10.44;40.91;101489.78;108655;1258;58379;-53
2023/05/07 05:16:49;;;;;;;7.70;3.50;;;;;;;10.49;40.79;101491.05;108647;1257;59178;-53
2023/05/07 05:19:16;;;;;;;5.90;3.10;;;;;;;10.53;40.88;101498.12;108658;1259;67319;-53
2023/05/07 05:21:43;;;;;;;6.20;3.50;;;;;;;10.59;40.83;101493.73;105089;1257;64362;-53
2023/05/07 05:24:11;;;;;;;8.20;3.40;;;;;;;10.66;40.81;101491.24;105213;1258;66035;-52
2023/05/07 05:26:38;;;;;;;7.90;3.60;;;;;;;10.71;40.80;101489.83;105059;1262;61697;-53
2023/05/07 05:29:07;;;;;;;6.20;3.20;;;;;;;10.73;40.86;101489.37;106083;1259;60518;-53
2023/05/07 05:31:35;;;;;;;6.60;3.60;;;;;;;10.75;41.02;101487.84;104932;1257;66696;-52
2023/05/07 05:34:02;;;;;;;8.20;3.50;;;;;;;10.78;41.09;101485.34;105075;1257;62738;-54
2023/05/07 05:36:30;;;;;;;7.40;3.50;;;;;;;10.83;40.99;101479.11;108716;1260;66290;-53
2023/05/07 05:38:57;;;;;;;7.20;3.30;;;;;;;10.88;41.05;101479.27;108601;1257;58423;-52
2023/05/07 05:41:24;;;;;;;6.80;3.10;;;;;;;10.92;40.45;101478.27;108725;1257;58634;-53
2023/05/07 05:43:51;;;;;;;6.50;3.20;;;;;;;10.96;40.49;101478.91;108689;1258;66267;-53
2023/05/07 05:46:18;;;;;;;7.30;2.80;;;;;;;11.01;40.46;101476.73;107279;1257;63772;-53
2023/05/07 05:48:46;;;;;;;6.50;3.00;;;;;;;11.05;40.17;101481.00;104913;1260;66493;-52
2023/05/07 05:51:13;;;;;;;6.80;3.30;;;;;;;11.09;39.79;101480.90;105004;1262;60465;-53
2023/05/07 05:53:40;;;;;;;8.50;2.90;;;;;;;11.13;39.30;101483.66;105141;1261;60424;-52
2023/05/07 05:56:07;;;;;;;5.60;2.70;;;;;;;11.17;39.03;101483.41;105131;1258;67784;-53
2023/05/07 05:58:34;;;;;;;7.30;3.30;;;;;;;11.21;38.87;101482.62;105086;1261;63938;-52
2023/05/07 06:01:05;;;;;;;4.80;2.80;;;;;;;11.25;38.37;101477.10;105295;1257;66359;-52
2023/05/07 06:03:33;;;;;;;5.40;2.40;;;;;;;11.28;38.27;101474.59;107729;1259;58954;-53
2023/05/07 06:06:02;;;;;;;5.60;2.60;;;;;;;11.34;38.43;101474.02;104971;1260;60362;-54
2023/05/07 06:08:29;;;;;;;5.40;2.50;;;;;;;11.41;38.62;101473.40;105097;1260;67320;-52
2023/05/07 06:10:56;;;;;;;4.80;2.50;;;;;;;11.48;38.64;101476.94;106374;1262;63414;-52
2023/05/07 06:13:23;;;;;;;6.40;2.50;;;;;;;11.55;38.39;101477.76;104817;1264;66578;-52
2023/05/07 06:15:52;;;;;;;6.40;2.30;;;;;;;11.60;38.25;101472.50;107898;1258;59416;-54
2023/05/07 06:18:19;;;;;;;7.60;2.20;;;;;;;11.65;37.93;101470.89;108680;1257;59312;-53
2023/05/07 06:20:46;;;;;;;4.80;2.20;;;;;;;11.69;37.77;101469.91;106530;1262;66289;-53
2023/05/07 06:23:20;;;;;;;6.90;1.80;;;;;;;11.75;37.48;101471.50;104957;1257;63584;-53
2023/05/07 06:25:50;;;;;;;4.50;2.00;;;;;;;11.81;37.53;101470.55;105009;1262;65301;-52
2023/05/07 06:28:18;;;;;;;7.00;2.00;;;;;;;11.87;37.20;101469.45;105795;1257;60318;-52
2023/05/07 06:30:46;;;;;;;6.70;2.50;;;;;;;11.91;37.06;101468.13;105023;1262;60464;-52
2023/05/07 06:33:13;;;;;;;5.30;2.20;;;;;;;11.96;37.12;101472.41;105145;1257;67562;-52
2023/05/07 06:35:40;;;;;;;6.20;2.20;;;;;;;12.01;36.94;101479.44;104867;1257;63975;-53
2023/05/07 06:38:07;;;;;;;6.50;2.00;;;;;;;12.06;36.52;101480.31;105234;1260;66402;-53
2023/05/07 06:40:35;;;;;;;5.10;1.90;;;;;;;12.13;36.19;101483.89;104662;1258;61699;-52
2023/05/07 06:43:01;;;;;;;5.50;1.80;;;;;;;12.16;36.08;101483.69;104399;1259;60460;-55
2023/05/07 06:45:54;;;;;;;5.50;2.40;;;;;;;12.19;36.16;101485.94;104346;1257;66577;-52
2023/05/07 06:48:21;;;;;;;4.50;1.50;;;;;;;12.21;35.68;101483.86;104366;1257;64174;-52
2023/05/07 06:51:00;;;;;;;4.50;1.60;;;;;;;12.22;35.38;101484.34;107531;1257;64949;-53
2023/05/07 06:53:30;;;;;;;5.20;1.70;;;;;;;12.24;35.52;101485.94;107708;1262;60476;-52
2023/05/07 06:55:58;;;;;;;5.30;1.60;;;;;;;12.27;35.48;101485.70;105436;1257;60496;-52
2023/05/07 06:58:25;;;;;;;3.80;1.40;;;;;;;12.30;35.27;101486.08;105074;1257;67894;-54
2023/05/07 07:00:52;;;;;;;5.60;1.50;;;;;;;12.32;35.29;101489.29;108654;1257;63487;-53
2023/05/07 07:03:20;;;;;;;4.10;1.40;;;;;;;12.34;35.06;101486.12;108774;1256;66240;-53
2023/05/07 07:05:47;;;;;;;4.40;1.60;;;;;;;12.37;34.76;101486.63;108736;1257;58560;-54
2023/05/07 07:08:14;;;;;;;5.40;1.50;;;;;;;12.40;34.41;101486.08;108937;1257;58148;-52
2023/05/07 07:10:41;;;;;;;4.30;1.80;;;;;;;12.44;34.21;101487.52;108747;1255;67904;-53
2023/05/07 07:15:43;;;;;;;4.80;1.70;;;;;;;12.35;34.10;101483.39;102207;1288;600771;-54
2023/05/07 07:18:10;;;;;;;4.40;1.70;;;;;;;12.51;33.46;101479.70;104051;1266;59383;-54
2023/05/07 07:20:38;;;;;;;5.90;1.70;;;;;;;12.52;33.22;101481.70;104648;1271;59427;-53
2023/05/07 07:23:06;;;;;;;5.30;1.70;;;;;;;12.55;33.31;101479.92;104330;1266;65100;-52
2023/05/07 07:25:34;;;;;;;4.50;1.60;;;;;;;12.60;32.77;101472.87;104383;1266;63650;-53
2023/05/07 07:28:01;;;;;;;6.70;1.80;;;;;;;12.68;32.76;101468.77;108071;1265;68110;-53
2023/05/07 07:30:28;;;;;;;5.00;2.10;;;;;;;12.78;32.67;101470.65;108085;1266;202361;-54
2023/05/07 07:33:00;;;;;;;4.50;1.50;;;;;;;12.87;32.39;101470.23;108211;1263;57660;-53
2023/05/07 07:35:29;;;;;;;4.10;1.50;;;;;;;13.00;32.67;101470.89;108300;1263;64848;-53
2023/05/07 07:37:56;;;;;;;5.80;1.80;;;;;;;13.12;32.74;101478.80;108192;1263;62738;-53
2023/05/07 07:40:23;;;;;;;3.70;1.30;;;;;;;13.22;32.86;101481.40;108425;1267;66173;-54
2023/05/07 07:42:51;;;;;;;4.10;1.40;;;;;;;13.30;32.72;101482.25;108294;1263;64523;-53
2023/05/07 07:45:18;;;;;;;4.60;1.50;;;;;;;13.36;32.44;101483.79;106024;1268;59269;-53
2023/05/07 07:47:46;;;;;;;4.20;1.60;;;;;;;13.43;31.86;101484.84;106167;1266;65175;-53
2023/05/07 07:50:14;;;;;;;6.80;1.80;;;;;;;13.49;31.37;101482.96;104630;1263;63669;-53
2023/05/07 07:52:58;;;;;;;3.40;1.40;;;;;;;13.55;30.89;101485.03;104555;1263;66266;-53
2023/05/07 07:55:26;;;;;;;3.20;1.10;;;;;;;13.58;30.92;101484.79;103914;1264;59758;-53
2023/05/07 07:57:53;;;;;;;3.00;1.10;;;;;;;13.62;30.74;101486.27;105864;1268;59786;-52
2023/05/07 08:00:20;;;;;;;4.30;1.10;;;;;;;13.63;30.31;101486.00;103946;1263;65348;-51
2023/05/07 08:02:49;;;;;;;5.10;1.60;;;;;;;13.65;30.28;101483.56;106673;1263;63812;-52
2023/05/07 08:05:22;;;;;;;5.10;1.40;;;;;;;13.65;30.16;101478.45;103883;1266;65027;-52
2023/05/07 08:07:51;;;;;;;4.40;1.30;;;;;;;13.57;30.08;101476.73;108228;1263;57949;-55
2023/05/07 08:10:21;;;;;;;6.20;2.00;;;;;;;13.52;30.40;101479.08;108303;1263;58882;-54
2023/05/07 08:12:52;;;;;;;3.70;1.30;;;;;;;13.47;30.14;101479.77;108338;1263;66735;-54
2023/05/07 08:15:19;;;;;;;4.20;1.60;;;;;;;13.44;30.13;101476.52;108329;1263;63781;-53
2023/05/07 08:17:46;;;;;;;5.10;1.20;;;;;;;13.46;30.21;101477.59;108247;1264;65408;-52
2023/05/07 08:20:13;;;;;;;4.00;1.50;;;;;;;13.48;30.40;101479.55;107723;1263;60232;-53
2023/05/07 08:22:41;;;;;;;6.30;1.50;;;;;;;13.47;30.50;101481.52;108061;1263;57973;-52
2023/05/07 08:25:08;;;;;;;6.10;1.50;;;;;;;13.48;30.75;101481.13;108219;1263;66496;-53
2023/05/07 08:27:35;;;;;;;3.90;1.40;;;;;;;13.51;30.24;101479.12;109004;1253;63971;-52
2023/05/07 08:30:04;;;;;;;4.60;1.00;;;;;;;13.56;29.99;101485.33;108920;1253;66087;-53
2023/05/07 08:32:30;;;;;;;3.60;1.20;;;;;;;13.63;29.85;101485.64;108893;1253;57507;-52
2023/05/07 08:34:57;;;;;;;4.50;1.50;;;;;;;13.66;29.57;101485.23;105895;1252;59677;-54
2023/05/07 08:37:25;;;;;;;3.10;1.10;;;;;;;13.71;29.34;101476.74;108965;1253;65179;-53
2023/05/07 08:39:52;;;;;;;3.50;1.20;;;;;;;13.75;29.57;101471.88;108965;1257;63609;-54
2023/05/07 08:42:20;;;;;;;3.00;1.10;;;;;;;13.81;29.87;101472.27;109095;1253;65409;-53
2023/05/07 08:44:47;;;;;;;4.90;1.30;;;;;;;13.90;30.03;101474.05;108973;1256;58605;-53
2023/05/07 08:47:14;;;;;;;3.00;1.00;;;;;;;14.00;30.02;101472.45;108965;1252;57762;-53
2023/05/07 08:49:42;;;;;;;5.00;1.30;;;;;;;14.09;30.10;101469.59;108982;1251;65345;-53
2023/05/07 08:52:09;;;;;;;4.40;1.20;;;;;;;14.21;29.98;101469.02;108860;1253;62727;-54
2023/05/07 08:54:37;;;;;;;4.40;1.30;;;;;;;14.27;29.44;101468.52;107848;1253;66124;-53
2023/05/07 08:57:05;;;;;;;3.60;1.30;;;;;;;14.30;28.90;101470.55;105435;1255;59839;-53
2023/05/07 08:59:32;;;;;;;3.60;1.30;;;;;;;14.33;28.72;101469.36;105853;1256;59895;-53
2023/05/07 09:02:00;;;;;;;4.70;1.10;;;;;;;14.32;28.63;101471.16;107474;1257;66684;-52
2023/05/07 09:04:27;;;;;;;5.20;1.30;;;;;;;14.30;29.03;101469.94;106989;1252;63697;-53
2023/05/07 09:06:55;;;;;;;3.80;1.00;;;;;;;14.28;29.00;101475.67;105335;1257;65355;-52
2023/05/07 09:09:22;;;;;;;3.70;1.40;;;;;;;14.23;28.61;101474.52;105275;1259;59725;-53
2023/05/07 09:11:58;;;;;;;3.60;0.90;;;;;;;14.11;28.59;101478.64;106839;1253;59517;-53
2023/05/07 09:14:26;;;;;;;4.20;1.50;;;;;;;14.01;28.93;101476.27;106750;1257;66520;-53
2023/05/07 09:16:53;;;;;;;3.30;1.20;;;;;;;13.96;29.38;101477.14;105225;1259;63665;-53
2023/05/07 09:19:24;;;;;;;4.30;1.20;;;;;;;13.96;29.75;101474.85;107664;1254;66212;-53
2023/05/07 09:22:00;;;;;;;5.80;1.10;;;;;;;13.95;29.30;101474.89;109071;1253;57494;-54
2023/05/07 09:24:34;;;;;;;3.30;1.40;;;;;;;13.91;29.16;101479.43;108892;1253;61879;-53
2023/05/07 09:27:02;;;;;;;4.90;1.40;;;;;;;13.86;28.89;101478.77;105732;1259;65540;-54
2023/05/07 09:29:34;;;;;;;3.80;1.20;;;;;;;13.86;28.42;101485.68;105871;1259;62450;-52
2023/05/07 09:32:03;;;;;;;6.50;1.10;;;;;;;13.84;28.66;101488.49;104763;1258;66233;-52
2023/05/07 09:34:31;;;;;;;4.30;1.20;;;;;;;13.83;28.25;101486.59;105363;1259;59781;-54
2023/05/07 09:37:00;;;;;;;4.20;1.00;;;;;;;13.81;27.85;101480.21;104610;1262;61537;-54
2023/05/07 09:39:42;;;;;;;3.90;1.50;;;;;;;13.78;28.40;101486.41;104723;1258;65105;-53
2023/05/07 09:42:10;;;;;;;3.30;1.10;;;;;;;13.78;28.42;101488.89;104749;1254;63351;-53
2023/05/07 09:44:38;;;;;;;4.80;1.30;;;;;;;13.76;28.45;101492.44;104776;1256;66607;-53
2023/05/07 09:47:08;;;;;;;3.70;1.20;;;;;;;13.73;28.63;101492.62;104714;1258;59659;-53
2023/05/07 09:49:41;;;;;;;5.50;1.40;;;;;;;13.71;28.30;101491.04;106806;1257;59718;-53
2023/05/07 09:52:10;;;;;;;3.50;1.10;;;;;;;13.68;27.90;101485.12;104783;1259;66783;-52
2023/05/07 09:54:45;;;;;;;5.70;1.30;;;;;;;13.62;28.25;101474.75;104896;1253;63435;-52
2023/05/07 09:57:12;;;;;;;4.50;1.60;;;;;;;13.56;28.99;101475.05;104741;1257;66185;-54
2023/05/07 09:59:40;;;;;;;4.30;1.40;;;;;;;13.55;28.80;101474.01;105126;1257;61366;-54
2023/05/07 10:02:08;;;;;;;4.10;1.30;;;;;;;13.57;28.51;101470.52;106756;1258;59220;-53
2023/05/07 10:04:38;;;;;;;5.90;1.60;;;;;;;13.59;28.70;101468.65;104722;1262;66933;-53
2023/05/07 10:07:05;;;;;;;2.40;0.90;;;;;;;13.68;29.13;101467.78;104751;1253;63449;-52
2023/05/07 10:09:35;;;;;;;5.20;1.30;;;;;;;13.80;28.71;101468.16;104834;1257;66354;-53
2023/05/07 10:12:02;;;;;;;3.70;1.50;;;;;;;13.91;28.33;101465.85;106014;1256;59633;-55
2023/05/07 10:14:29;;;;;;;3.00;1.00;;;;;;;14.01;28.14;101463.86;105074;1257;59639;-53
2023/05/07 10:16:56;;;;;;;4.40;1.20;;;;;;;14.10;28.49;101463.33;108046;1253;65431;-53
2023/05/07 10:19:24;;;;;;;3.70;1.20;;;;;;;14.19;28.38;101463.18;106273;1254;63781;-52
2023/05/07 10:21:56;;;;;;;4.30;1.40;;;;;;;14.27;27.97;101462.05;106174;1260;66171;-53
2023/05/07 10:24:29;;;;;;;5.20;1.60;;;;;;;14.34;27.49;101460.63;109037;1254;57427;-52
2023/05/07 10:26:56;;;;;;;11.50;1.40;;;;;;;14.38;27.53;101463.88;106034;1253;59425;-53
2023/05/07 10:29:27;;;;;;;4.30;1.40;;;;;;;14.47;27.51;101457.29;105323;1259;66272;-53
2023/05/07 10:32:02;;;;;;;5.00;1.40;;;;;;;14.56;27.11;101452.33;104698;1256;63863;-53
2023/05/07 10:34:37;;;;;;;6.00;1.30;;;;;;;14.63;28.01;101444.70;106088;1257;68413;-54
2023/05/07 10:37:04;;;;;;;4.60;1.30;;;;;;;14.74;28.26;101450.25;105161;1259;59685;-53
2023/05/07 10:39:31;;;;;;;4.60;1.10;;;;;;;14.79;28.06;101448.77;104765;1253;59588;-53
2023/05/07 10:42:09;;;;;;;6.80;1.40;;;;;;;14.89;27.09;101441.06;104450;1259;66501;-52
2023/05/07 10:44:37;;;;;;;4.60;1.40;;;;;;;14.90;26.92;101439.40;105081;1257;63793;-52
2023/05/07 10:47:13;;;;;;;8.00;1.70;;;;;;;14.89;27.54;101436.66;104545;1255;65805;-52
2023/05/07 10:49:42;;;;;;;3.90;1.40;;;;;;;14.87;27.27;101431.30;105137;1255;59784;-52
2023/05/07 10:52:18;;;;;;;2.90;1.00;;;;;;;14.73;27.05;101429.63;104921;1254;60528;-53
2023/05/07 10:55:24;;;;;;;6.10;1.50;;;;;;;14.60;27.74;101431.92;104849;1257;66897;-53
2023/05/07 10:58:22;;;;;;;3.60;1.00;;;;;;;14.51;27.50;101436.63;108973;1254;63763;-54
2023/05/07 11:01:01;;;;;;;4.40;1.20;;;;;;;14.45;27.83;101436.80;106376;1253;65104;-53
2023/05/07 11:03:36;;;;;;;4.10;1.20;;;;;;;14.42;27.79;101425.91;104603;1254;59576;-53
2023/05/07 11:06:15;;;;;;;4.00;1.30;;;;;;;14.40;27.12;101424.67;105153;1255;59183;-54
2023/05/07 11:08:53;;;;;;;4.30;1.10;;;;;;;14.37;27.18;101418.05;105283;1257;66979;-53
2023/05/07 11:11:46;;;;;;;4.30;1.00;;;;;;;14.37;27.36;101416.08;105276;1259;62775;-53
2023/05/07 11:14:41;;;;;;;3.50;1.20;;;;;;;14.39;27.92;101422.27;109031;1254;65997;-53
2023/05/07 11:17:11;;;;;;;4.10;1.30;;;;;;;14.43;27.95;101428.44;108489;1257;59715;-54
2023/05/07 11:19:51;;;;;;;4.80;1.40;;;;;;;14.48;27.97;101429.52;106353;1254;59653;-53
2023/05/07 11:22:32;;;;;;;3.30;1.20;;;;;;;14.52;27.74;101430.57;105253;1254;66926;-52
2023/05/07 11:25:28;;;;;;;3.30;1.20;;;;;;;14.55;27.40;101431.92;105437;1255;62717;-55
2023/05/07 11:28:06;;;;;;;5.10;1.20;;;;;;;14.55;27.02;101431.44;108690;1260;64924;-53
2023/05/07 11:30:34;;;;;;;3.30;0.90;;;;;;;14.53;26.89;101435.06;105399;1254;60505;-54